Time;durP1;ratioP1;P1;durP2;ratioP2;P2;SDS_P1;SDS_P2;PMS_P1;PMS_P2;Temp;Humidity;BMP_temperature;BMP_pressure;BME280_temperature;BME280_humidity;BME280_pressure;Samples;Min_cycle;Max_cycle;Signal;HPM_P1;HPM_P2
2023/10/01 00:01:43;;;;;;;21.50;12.85;;;12.30;99.90;;;;;;5032836;28;20429;-74
2023/10/01 00:04:12;;;;;;;24.70;12.57;;;12.30;99.90;;;;;;5033120;28;20565;-74
2023/10/01 00:06:39;;;;;;;23.50;12.82;;;12.30;99.90;;;;;;5033328;28;20402;-75
2023/10/01 00:09:05;;;;;;;27.55;13.35;;;12.30;99.90;;;;;;5033454;28;20433;-74
2023/10/01 00:11:41;;;;;;;22.70;13.10;;;12.30;99.90;;;;;;5015093;28;20470;-74
2023/10/01 00:14:08;;;;;;;20.92;13.23;;;12.30;99.90;;;;;;5033032;28;20390;-74
2023/10/01 00:16:34;;;;;;;25.37;14.97;;;12.40;99.60;;;;;;5033103;28;20419;-74
2023/10/01 00:19:00;;;;;;;18.67;13.15;;;12.50;98.10;;;;;;5033139;28;20445;-75
2023/10/01 00:21:27;;;;;;;24.65;13.85;;;12.50;99.40;;;;;;5032847;28;20419;-75
2023/10/01 00:23:54;;;;;;;26.92;14.38;;;12.60;97.80;;;;;;5033731;28;20427;-75
2023/10/01 00:26:20;;;;;;;22.77;13.77;;;12.60;96.60;;;;;;5015546;28;20399;-76
2023/10/01 00:28:45;;;;;;;26.83;14.67;;;12.60;95.20;;;;;;5032909;28;20384;-75
2023/10/01 00:31:11;;;;;;;27.80;14.50;;;12.60;94.70;;;;;;5032811;28;20383;-75
2023/10/01 00:33:37;;;;;;;23.15;14.73;;;12.60;94.90;;;;;;5033016;28;20386;-75
2023/10/01 00:36:03;;;;;;;26.00;15.87;;;12.50;95.60;;;;;;5033869;28;20418;-74
2023/10/01 00:38:29;;;;;;;27.85;15.63;;;12.60;95.40;;;;;;5033287;28;20387;-74
2023/10/01 00:40:55;;;;;;;22.73;15.30;;;12.50;94.80;;;;;;5032839;28;20954;-76
2023/10/01 00:43:25;;;;;;;26.80;15.18;;;12.50;95.20;;;;;;5032873;28;20446;-74
2023/10/01 00:45:51;;;;;;;26.35;15.98;;;12.50;95.80;;;;;;5032832;28;20463;-74
2023/10/01 00:48:18;;;;;;;26.33;16.50;;;12.50;96.00;;;;;;5032786;28;20890;-74
2023/10/01 00:50:44;;;;;;;28.75;17.08;;;12.50;96.40;;;;;;5014562;28;20396;-75
2023/10/01 00:53:10;;;;;;;32.15;18.65;;;12.50;95.40;;;;;;5032412;28;20741;-75
2023/10/01 00:55:37;;;;;;;34.67;19.75;;;12.40;96.60;;;;;;5031897;28;20791;-73
2023/10/01 00:58:03;;;;;;;34.25;20.20;;;12.40;97.30;;;;;;5032553;28;20907;-74
2023/10/01 01:00:29;;;;;;;34.33;22.45;;;12.40;98.00;;;;;;5032610;28;20391;-75
2023/10/01 01:05:28;;;;;;;38.55;24.65;;;12.50;97.20;;;;;;5032513;28;20390;-75
2023/10/01 01:08:00;;;;;;;46.05;26.40;;;12.40;98.80;;;;;;5032387;28;20751;-75
2023/10/01 01:10:31;;;;;;;44.15;27.02;;;12.30;99.90;;;;;;5032372;28;20460;-75
2023/10/01 01:12:58;;;;;;;44.95;27.52;;;12.40;99.80;;;;;;5031900;28;20387;-75
2023/10/01 01:15:23;;;;;;;50.50;27.40;;;12.30;99.90;;;;;;5031991;28;20466;-75
2023/10/01 01:17:53;;;;;;;50.67;27.50;;;12.30;99.90;;;;;;5032154;28;20874;-76
2023/10/01 01:20:19;;;;;;;47.03;28.75;;;12.20;99.90;;;;;;5032109;28;20522;-74
2023/10/01 01:22:51;;;;;;;44.15;26.70;;;12.20;99.90;;;;;;5031417;28;20411;-75
2023/10/01 01:25:20;;;;;;;40.17;26.10;;;12.30;99.90;;;;;;5032569;28;20739;-75
2023/10/01 01:27:48;;;;;;;44.80;27.65;;;12.30;99.90;;;;;;5031909;28;20883;-74
2023/10/01 01:30:18;;;;;;;49.95;28.27;;;12.30;99.90;;;;;;5032820;28;20476;-74
2023/10/01 01:32:47;;;;;;;42.20;25.83;;;12.20;99.90;;;;;;5031558;28;20387;-74
2023/10/01 01:35:13;;;;;;;43.72;24.13;;;12.20;99.90;;;;;;5031934;28;20383;-75
2023/10/01 01:37:48;;;;;;;37.97;24.38;;;12.20;99.90;;;;;;5031854;28;20413;-75
2023/10/01 01:40:24;;;;;;;42.67;26.23;;;12.10;99.90;;;;;;5032073;28;20385;-74
2023/10/01 01:42:51;;;;;;;40.13;24.90;;;12.10;99.90;;;;;;5013478;28;20557;-74
2023/10/01 01:45:19;;;;;;;43.60;24.67;;;12.10;99.90;;;;;;5031487;28;20393;-75
2023/10/01 01:47:45;;;;;;;43.13;24.52;;;12.10;99.90;;;;;;5031469;28;20383;-75
2023/10/01 01:50:27;;;;;;;43.28;25.50;;;12.10;99.90;;;;;;5031657;28;20799;-76
2023/10/01 01:52:56;;;;;;;39.10;24.50;;;12.00;99.90;;;;;;5030702;28;20477;-73
2023/10/01 01:55:23;;;;;;;43.22;23.35;;;12.00;99.90;;;;;;5030948;28;20957;-74
2023/10/01 01:58:07;;;;;;;43.60;23.23;;;12.00;99.90;;;;;;5013754;28;20824;-73
2023/10/01 02:00:37;;;;;;;41.10;23.40;;;12.00;99.90;;;;;;5009120;28;20406;-73
2023/10/01 02:03:10;;;;;;;36.58;21.88;;;12.00;99.90;;;;;;5030953;28;20910;-75
2023/10/01 02:05:42;;;;;;;37.53;21.23;;;12.00;99.90;;;;;;5029480;28;20426;-73
2023/10/01 02:08:10;;;;;;;36.75;20.27;;;12.00;99.90;;;;;;5013297;28;20387;-73
2023/10/01 02:10:45;;;;;;;33.78;19.67;;;12.00;99.90;;;;;;5030790;28;20391;-74
2023/10/01 02:13:13;;;;;;;33.30;19.20;;;12.00;99.90;;;;;;5031700;28;20478;-74
2023/10/01 02:15:40;;;;;;;26.02;18.00;;;12.10;99.90;;;;;;5033006;28;20484;-74
2023/10/01 02:18:08;;;;;;;29.83;17.40;;;12.10;99.90;;;;;;5033195;28;20398;-74
2023/10/01 02:20:37;;;;;;;29.55;18.33;;;12.00;99.90;;;;;;5032502;28;20398;-74
2023/10/01 02:23:03;;;;;;;27.17;17.70;;;12.00;99.90;;;;;;5014967;28;20407;-73
2023/10/01 02:25:38;;;;;;;27.88;17.33;;;12.00;99.90;;;;;;5017354;28;20397;-75
2023/10/01 02:28:11;;;;;;;30.80;16.90;;;12.00;99.90;;;;;;5021353;28;20795;-75
2023/10/01 02:30:37;;;;;;;27.63;15.30;;;12.10;99.90;;;;;;5036393;28;20403;-75
2023/10/01 02:33:18;;;;;;;27.13;16.23;;;12.00;99.90;;;;;;5037116;28;20383;-74
2023/10/01 02:35:49;;;;;;;29.65;16.55;;;12.00;99.90;;;;;;5031062;28;20933;-73
2023/10/01 02:41:02;;;;;;;26.33;15.68;;;12.00;99.90;;;;;;5030669;28;20524;-75
2023/10/01 02:43:34;;;;;;;24.67;14.97;;;12.00;99.90;;;;;;5030611;28;20819;-76
2023/10/01 02:46:14;;;;;;;23.73;14.40;;;12.00;99.90;;;;;;5030728;28;20524;-75
2023/10/01 02:48:42;;;;;;;22.00;14.20;;;12.00;99.90;;;;;;5029465;28;20426;-75
2023/10/01 02:51:14;;;;;;;23.33;14.00;;;12.10;99.90;;;;;;5031157;28;20391;-74
2023/10/01 02:54:01;;;;;;;31.15;14.88;;;12.00;99.90;;;;;;5032181;28;20745;-74
2023/10/01 02:56:34;;;;;;;25.17;14.13;;;12.00;99.90;;;;;;5031090;28;20387;-76
2023/10/01 02:59:24;;;;;;;22.00;13.20;;;12.10;99.90;;;;;;5030306;28;20441;-73
2023/10/01 03:01:49;;;;;;;22.30;13.37;;;12.10;99.90;;;;;;5029437;28;20933;-74
2023/10/01 03:04:16;;;;;;;23.90;13.97;;;12.10;99.90;;;;;;5019774;28;20410;-75
2023/10/01 03:06:55;;;;;;;24.43;13.87;;;12.10;99.90;;;;;;5030006;28;20418;-74
2023/10/01 03:09:39;;;;;;;24.53;14.37;;;12.20;99.90;;;;;;5030316;28;20422;-74
2023/10/01 03:15:16;;;;;;;21.63;12.15;;;12.30;99.90;;;;;;5030643;28;20433;-75
2023/10/01 03:17:58;;;;;;;21.80;12.52;;;12.40;99.90;;;;;;5032247;28;20391;-74
2023/10/01 03:23:10;;;;;;;21.35;12.00;;;12.50;99.50;;;;;;5046846;22;20504;-71
2023/10/01 03:25:42;;;;;;;22.90;12.35;;;12.50;97.10;;;;;;5035117;28;20526;-71
2023/10/01 03:28:25;;;;;;;19.98;11.93;;;12.50;95.90;;;;;;5035165;28;20387;-72
2023/10/01 03:31:01;;;;;;;18.65;11.57;;;12.60;94.00;;;;;;5034966;28;20397;-72
2023/10/01 03:33:30;;;;;;;21.17;11.45;;;12.60;92.00;;;;;;5034244;28;20403;-71
2023/10/01 03:35:57;;;;;;;18.00;12.00;;;12.70;91.10;;;;;;5034700;28;20481;-72
2023/10/01 03:38:23;;;;;;;17.52;11.05;;;12.80;89.40;;;;;;5034530;28;20387;-72
2023/10/01 03:41:00;;;;;;;19.45;11.50;;;12.80;88.50;;;;;;5034144;28;20411;-72
2023/10/01 03:43:34;;;;;;;16.83;11.00;;;12.80;87.30;;;;;;5034737;28;20974;-72
2023/10/01 03:46:26;;;;;;;18.13;11.20;;;12.90;85.10;;;;;;5034389;28;20437;-71
2023/10/01 03:51:58;;;;;;;19.80;11.20;;;12.90;86.70;;;;;;5034708;28;20470;-72
2023/10/01 03:57:12;;;;;;;21.08;10.95;;;12.90;85.50;;;;;;5036125;28;20457;-72
2023/10/01 03:59:38;;;;;;;21.80;10.82;;;12.80;85.60;;;;;;5034805;28;20398;-71
2023/10/01 04:02:26;;;;;;;21.33;11.80;;;12.80;86.60;;;;;;5034091;28;20818;-70
2023/10/01 04:04:58;;;;;;;19.58;11.38;;;12.80;85.10;;;;;;5034322;28;20462;-72
2023/10/01 04:07:43;;;;;;;22.00;12.00;;;12.60;86.60;;;;;;5033231;28;20880;-72
2023/10/01 04:10:14;;;;;;;18.10;10.40;;;12.60;87.90;;;;;;5034177;28;20486;-72
2023/10/01 04:12:58;;;;;;;19.15;10.82;;;12.60;86.90;;;;;;5034065;28;20467;-71
2023/10/01 04:15:28;;;;;;;19.85;11.05;;;12.60;87.70;;;;;;5033873;28;20390;-72
2023/10/01 04:21:28;;;;;;;21.30;11.18;;;12.50;90.00;;;;;;5033501;28;20744;-72
2023/10/01 04:23:40;;;;;;;18.65;10.88;;;12.50;89.20;;;;;;5025632;28;20422;-73
2023/10/01 04:26:13;;;;;;;16.38;10.60;;;12.50;90.10;;;;;;5033552;28;20460;-72
2023/10/01 04:28:47;;;;;;;18.45;10.98;;;12.50;89.30;;;;;;5032808;28;20765;-71
2023/10/01 04:31:18;;;;;;;19.45;11.55;;;12.40;90.20;;;;;;5033693;28;20706;-72
2023/10/01 04:33:48;;;;;;;20.75;10.77;;;12.30;91.60;;;;;;5033525;28;20399;-72
2023/10/01 04:36:16;;;;;;;21.35;11.98;;;12.30;92.80;;;;;;5033458;28;20461;-70
2023/10/01 04:38:46;;;;;;;19.98;11.15;;;12.30;93.40;;;;;;5033000;28;20406;-70
2023/10/01 04:41:13;;;;;;;21.20;11.93;;;12.30;92.20;;;;;;5033027;28;20399;-70
2023/10/01 04:43:51;;;;;;;16.30;11.00;;;12.30;93.10;;;;;;5033343;28;20418;-71
2023/10/01 04:46:20;;;;;;;22.73;12.33;;;12.30;92.70;;;;;;5033048;28;20464;-71
2023/10/01 04:48:47;;;;;;;17.65;10.90;;;12.20;93.70;;;;;;5033155;28;20961;-72
2023/10/01 04:51:13;;;;;;;22.15;11.90;;;12.20;94.40;;;;;;5035685;28;20449;-71
2023/10/01 04:53:39;;;;;;;19.23;11.20;;;12.20;93.90;;;;;;5033640;28;20394;-72
2023/10/01 04:56:05;;;;;;;19.30;11.40;;;12.20;94.70;;;;;;5033413;28;20395;-72
2023/10/01 04:58:32;;;;;;;18.65;11.45;;;12.20;95.10;;;;;;5035042;28;20813;-71
2023/10/01 05:00:58;;;;;;;18.52;10.95;;;12.10;95.30;;;;;;5032634;28;21912;-73
2023/10/01 05:03:40;;;;;;;20.52;12.20;;;12.10;95.50;;;;;;5034381;28;20407;-71
2023/10/01 05:06:12;;;;;;;21.20;11.00;;;12.10;96.20;;;;;;5016018;28;20748;-72
2023/10/01 05:08:39;;;;;;;22.95;10.70;;;12.10;97.10;;;;;;5033664;28;20398;-71
2023/10/01 05:11:10;;;;;;;22.05;11.45;;;12.10;97.30;;;;;;5027419;28;20421;-72
2023/10/01 05:13:40;;;;;;;20.85;10.70;;;12.20;94.60;;;;;;5034266;28;20394;-71
2023/10/01 05:16:13;;;;;;;19.10;11.27;;;12.10;94.60;;;;;;5033646;28;20402;-71
2023/10/01 05:18:43;;;;;;;19.48;10.88;;;12.10;95.50;;;;;;5033468;28;20395;-72
2023/10/01 05:21:21;;;;;;;19.27;10.60;;;12.10;95.10;;;;;;5033096;28;20395;-71
2023/10/01 05:23:47;;;;;;;21.67;11.50;;;12.10;95.10;;;;;;5014942;28;20414;-71
2023/10/01 05:26:20;;;;;;;21.15;11.70;;;12.10;95.50;;;;;;5032883;28;20387;-72
2023/10/01 05:28:47;;;;;;;23.08;10.80;;;12.20;96.50;;;;;;5035701;28;20379;-72
2023/10/01 05:31:14;;;;;;;20.38;10.68;;;12.20;95.80;;;;;;5014461;28;20425;-72
2023/10/01 05:33:45;;;;;;;18.77;11.65;;;12.20;93.10;;;;;;5033433;28;20912;-72
2023/10/01 05:36:13;;;;;;;19.97;10.50;;;12.20;92.10;;;;;;5035743;28;20414;-73
2023/10/01 05:38:40;;;;;;;20.35;10.50;;;12.20;92.40;;;;;;5017537;28;20406;-71
2023/10/01 05:41:13;;;;;;;17.00;10.48;;;12.20;92.90;;;;;;5033637;28;20414;-72
2023/10/01 05:43:43;;;;;;;17.70;10.63;;;12.20;92.40;;;;;;5034836;28;20479;-71
2023/10/01 05:46:10;;;;;;;22.23;11.20;;;12.30;92.50;;;;;;5035387;28;20496;-71
2023/10/01 05:48:37;;;;;;;20.60;11.23;;;12.30;92.20;;;;;;5033863;28;20403;-72
2023/10/01 05:51:04;;;;;;;20.13;10.60;;;12.20;93.00;;;;;;5034561;28;20379;-73
2023/10/01 05:53:30;;;;;;;21.70;11.00;;;12.30;90.80;;;;;;5035348;28;20383;-72
2023/10/01 05:56:10;;;;;;;19.55;11.07;;;12.40;90.00;;;;;;5034774;28;20406;-71
2023/10/01 05:58:36;;;;;;;18.70;10.18;;;12.30;90.80;;;;;;5034254;28;20391;-71
2023/10/01 06:01:14;;;;;;;18.33;10.40;;;12.30;89.80;;;;;;5031576;28;20398;-71
2023/10/01 06:03:44;;;;;;;17.10;9.80;;;12.30;90.40;;;;;;5031515;28;20497;-71
2023/10/01 06:06:25;;;;;;;16.30;9.93;;;12.30;89.70;;;;;;5031944;28;20387;-71
2023/10/01 06:08:58;;;;;;;17.08;10.10;;;12.30;90.60;;;;;;5023104;28;20399;-71
2023/10/01 06:17:00;;;;;;;16.80;9.57;;;12.50;87.80;;;;;;5032147;28;20767;-71
2023/10/01 06:19:32;;;;;;;18.13;9.55;;;12.50;86.70;;;;;;5033556;28;20402;-72
2023/10/01 06:22:12;;;;;;;15.48;8.90;;;12.50;86.40;;;;;;5034755;28;20418;-73
2023/10/01 06:24:39;;;;;;;17.83;9.70;;;12.60;86.60;;;;;;5033511;28;20407;-70
2023/10/01 06:27:06;;;;;;;17.15;10.00;;;12.70;85.70;;;;;;5031314;28;20776;-72
2023/10/01 06:29:33;;;;;;;17.13;9.00;;;12.70;84.70;;;;;;5031493;28;20880;-71
2023/10/01 06:32:01;;;;;;;13.40;9.02;;;12.80;83.50;;;;;;5030869;28;20409;-72
2023/10/01 06:34:39;;;;;;;18.05;9.40;;;12.90;81.70;;;;;;5031271;28;20505;-72
2023/10/01 06:37:05;;;;;;;16.73;9.02;;;13.00;78.80;;;;;;5031520;28;20399;-72
2023/10/01 06:39:35;;;;;;;17.13;8.80;;;13.00;76.80;;;;;;5030738;28;20438;-72
2023/10/01 06:42:18;;;;;;;15.70;9.07;;;13.10;77.50;;;;;;5030409;28;20465;-72
2023/10/01 06:44:45;;;;;;;15.05;8.63;;;13.10;75.50;;;;;;5031066;28;20399;-72
2023/10/01 06:47:17;;;;;;;17.08;9.90;;;13.20;75.10;;;;;;5013321;28;20895;-72
2023/10/01 06:52:28;;;;;;;17.02;8.70;;;13.40;71.70;;;;;;5032497;28;20902;-72
2023/10/01 06:54:57;;;;;;;16.35;9.35;;;13.50;70.10;;;;;;5035612;28;20465;-72
2023/10/01 06:57:33;;;;;;;16.20;8.60;;;13.60;70.00;;;;;;5035732;28;20440;-72
2023/10/01 07:00:03;;;;;;;14.35;8.73;;;13.60;69.90;;;;;;5035702;28;20394;-71
2023/10/01 07:02:29;;;;;;;16.67;8.00;;;13.70;68.70;;;;;;5034656;28;20533;-71
2023/10/01 07:04:58;;;;;;;15.40;8.40;;;13.70;66.50;;;;;;5035593;28;20402;-71
2023/10/01 07:07:28;;;;;;;17.77;8.30;;;13.80;65.70;;;;;;5035246;28;20456;-71
2023/10/01 07:10:00;;;;;;;16.15;8.93;;;13.90;64.90;;;;;;5034784;28;20403;-71
2023/10/01 07:12:25;;;;;;;15.52;8.82;;;14.00;65.00;;;;;;5034662;28;20418;-71
2023/10/01 07:14:52;;;;;;;14.07;8.30;;;14.00;63.70;;;;;;5034888;28;20827;-72
2023/10/01 07:17:24;;;;;;;16.83;8.20;;;14.10;62.70;;;;;;5032679;28;20404;-71
2023/10/01 07:20:00;;;;;;;19.63;8.68;;;14.30;61.50;;;;;;5034636;28;21166;-72
2023/10/01 07:22:31;;;;;;;15.73;8.40;;;14.40;61.00;;;;;;5033915;28;20438;-72
2023/10/01 07:25:01;;;;;;;16.10;8.00;;;14.50;58.40;;;;;;5000463;28;20832;-71
2023/10/01 07:27:27;;;;;;;14.20;8.18;;;14.50;58.20;;;;;;5034571;28;20394;-71
2023/10/01 07:29:54;;;;;;;15.95;8.35;;;14.60;57.60;;;;;;5034654;28;20383;-71
2023/10/01 07:32:24;;;;;;;15.38;8.55;;;14.70;58.30;;;;;;5016373;28;20405;-72
2023/10/01 07:34:59;;;;;;;17.45;8.57;;;14.80;56.30;;;;;;5035234;28;20415;-71
2023/10/01 07:37:26;;;;;;;16.17;7.72;;;14.90;57.00;;;;;;5035703;28;20759;-71
2023/10/01 07:39:55;;;;;;;15.55;8.40;;;15.00;55.80;;;;;;5035642;28;20818;-71
2023/10/01 07:42:25;;;;;;;17.70;8.20;;;15.10;54.40;;;;;;5036096;28;20431;-72
2023/10/01 07:44:52;;;;;;;14.40;8.15;;;15.30;52.80;;;;;;5035250;28;20486;-71
2023/10/01 07:47:32;;;;;;;17.58;9.15;;;15.30;53.30;;;;;;5034031;28;20397;-72
2023/10/01 07:50:12;;;;;;;15.53;8.07;;;15.40;53.70;;;;;;5030032;28;20478;-72
2023/10/01 07:52:41;;;;;;;16.20;8.85;;;15.40;52.90;;;;;;5017641;28;20486;-73
2023/10/01 07:57:51;;;;;;;16.95;8.60;;;15.70;53.30;;;;;;5021382;28;20413;-72
2023/10/01 08:00:26;;;;;;;16.67;8.65;;;15.80;53.00;;;;;;5031801;28;20390;-72
2023/10/01 08:03:55;;;;;;;18.45;8.98;;;16.00;50.30;;;;;;5028655;28;20620;-72
2023/10/01 08:05:48;;;;;;;16.50;8.73;;;16.10;49.50;;;;;;5017684;28;20445;-72
2023/10/01 08:08:27;;;;;;;14.48;7.90;;;16.10;49.80;;;;;;5015502;28;20714;-73
2023/10/01 08:10:54;;;;;;;17.63;8.52;;;16.10;48.30;;;;;;5041947;28;20394;-73
2023/10/01 08:13:25;;;;;;;16.63;8.27;;;16.30;48.60;;;;;;5044052;28;20438;-72
2023/10/01 08:15:57;;;;;;;16.08;8.35;;;16.30;46.80;;;;;;5035524;28;20390;-73
2023/10/01 08:18:35;;;;;;;19.83;8.90;;;16.40;47.10;;;;;;5032642;28;20470;-71
2023/10/01 08:21:03;;;;;;;15.18;7.80;;;16.50;47.30;;;;;;5031436;28;20752;-72
2023/10/01 08:23:31;;;;;;;17.05;8.73;;;16.60;47.10;;;;;;5018628;28;20409;-72
2023/10/01 08:26:39;;;;;;;19.80;7.57;;;16.70;45.80;;;;;;5014634;28;20726;-72
2023/10/01 08:28:55;;;;;;;17.35;8.57;;;16.80;44.60;;;;;;5032416;28;20399;-72
2023/10/01 08:31:43;;;;;;;17.77;8.70;;;16.90;43.80;;;;;;5032201;28;20390;-71
2023/10/01 08:34:22;;;;;;;17.35;8.32;;;17.00;44.30;;;;;;5032613;28;21046;-72
2023/10/01 08:36:54;;;;;;;14.80;7.90;;;17.00;43.60;;;;;;5016706;28;20403;-71
2023/10/01 08:39:33;;;;;;;17.55;8.35;;;17.10;43.70;;;;;;5013467;28;20393;-72
2023/10/01 08:42:09;;;;;;;16.20;8.88;;;17.20;43.20;;;;;;5029891;28;20414;-72
2023/10/01 08:44:47;;;;;;;20.77;8.47;;;17.30;42.00;;;;;;5030401;28;20383;-72
2023/10/01 08:47:22;;;;;;;16.23;8.05;;;17.30;42.90;;;;;;5030988;28;20418;-72
2023/10/01 08:49:56;;;;;;;14.75;8.23;;;17.60;42.70;;;;;;5029972;28;20510;-72
2023/10/01 08:52:26;;;;;;;17.27;8.68;;;17.70;41.60;;;;;;5029906;28;20779;-72
2023/10/01 08:54:53;;;;;;;15.38;7.68;;;17.70;42.10;;;;;;5028389;28;20398;-72
2023/10/01 08:57:36;;;;;;;15.85;8.43;;;17.80;41.60;;;;;;5013518;28;20418;-71
2023/10/01 09:00:19;;;;;;;19.50;8.10;;;17.90;41.50;;;;;;5012412;28;20876;-71
2023/10/01 09:02:55;;;;;;;17.20;8.73;;;18.00;40.80;;;;;;5029267;28;20406;-72
2023/10/01 09:05:25;;;;;;;20.45;9.13;;;18.30;40.40;;;;;;5030642;28;20868;-72
2023/10/01 09:10:47;;;;;;;17.95;8.10;;;18.30;38.80;;;;;;5011912;28;20426;-71
2023/10/01 09:13:20;;;;;;;18.00;8.40;;;18.40;38.90;;;;;;5027107;28;20397;-72
2023/10/01 09:15:55;;;;;;;17.45;9.10;;;18.50;38.00;;;;;;5032106;28;20395;-71
2023/10/01 09:18:25;;;;;;;21.60;8.48;;;18.50;38.80;;;;;;5031681;28;20545;-72
2023/10/01 09:21:08;;;;;;;19.33;9.05;;;18.50;38.80;;;;;;5031388;28;20391;-71
2023/10/01 09:23:56;;;;;;;22.88;8.55;;;18.70;37.70;;;;;;5043429;22;20462;-74
2023/10/01 09:26:39;;;;;;;16.80;9.20;;;18.80;37.40;;;;;;5029182;28;20788;-72
2023/10/01 09:29:23;;;;;;;24.20;9.20;;;18.80;37.00;;;;;;5026840;28;20489;-73
2023/10/01 09:32:08;;;;;;;20.95;9.70;;;18.90;36.80;;;;;;5028860;28;20387;-73
2023/10/01 09:34:34;;;;;;;23.10;9.90;;;19.00;37.50;;;;;;5029164;28;20815;-72
2023/10/01 09:37:17;;;;;;;20.73;9.27;;;19.00;37.80;;;;;;5029472;28;20484;-72
2023/10/01 09:39:43;;;;;;;20.40;9.20;;;19.10;36.50;;;;;;5029643;28;20379;-73
2023/10/01 09:42:24;;;;;;;22.52;9.30;;;19.20;36.40;;;;;;5028870;28;20387;-71
2023/10/01 09:44:52;;;;;;;24.48;9.40;;;19.30;36.90;;;;;;5028505;28;20985;-73
2023/10/01 09:47:23;;;;;;;20.15;9.13;;;19.40;35.80;;;;;;5029349;28;20403;-73
2023/10/01 09:49:51;;;;;;;19.13;8.90;;;19.50;35.50;;;;;;5030096;28;20461;-73
2023/10/01 09:52:30;;;;;;;19.25;9.45;;;19.50;35.40;;;;;;5029138;28;20427;-74
2023/10/01 09:55:10;;;;;;;22.92;9.55;;;19.60;35.00;;;;;;5028631;28;20903;-74
2023/10/01 09:57:38;;;;;;;18.20;9.10;;;19.80;35.10;;;;;;5031756;28;20470;-73
2023/10/01 10:00:17;;;;;;;18.10;9.48;;;19.90;34.40;;;;;;5034198;28;20414;-72
2023/10/01 10:02:51;;;;;;;24.63;10.60;;;20.00;34.50;;;;;;5034636;28;20931;-73
2023/10/01 10:05:26;;;;;;;19.33;9.68;;;20.00;34.00;;;;;;5030415;28;20478;-72
2023/10/01 10:08:13;;;;;;;19.80;9.70;;;20.20;33.60;;;;;;5028887;28;20427;-72
2023/10/01 10:10:48;;;;;;;18.57;9.17;;;20.40;33.80;;;;;;5033707;28;20379;-74
2023/10/01 10:13:37;;;;;;;21.77;9.80;;;20.50;33.50;;;;;;5033381;28;20748;-74
2023/10/01 10:19:20;;;;;;;19.48;9.40;;;21.20;32.00;;;;;;5030634;28;20469;-73
2023/10/01 10:24:30;;;;;;;20.37;9.33;;;21.60;30.00;;;;;;5028873;28;20807;-72
2023/10/01 10:26:56;;;;;;;22.67;10.30;;;21.50;30.40;;;;;;5027491;28;20441;-71
2023/10/01 10:29:23;;;;;;;20.15;10.05;;;21.50;30.60;;;;;;5027360;28;20395;-71
2023/10/01 10:32:09;;;;;;;20.80;10.18;;;21.50;30.90;;;;;;5027919;28;20843;-72
2023/10/01 10:34:47;;;;;;;24.98;10.13;;;21.60;30.80;;;;;;5026949;28;20834;-72
2023/10/01 10:37:35;;;;;;;22.55;9.32;;;21.80;30.30;;;;;;5027750;28;20413;-72
2023/10/01 10:40:12;;;;;;;21.00;9.93;;;21.90;30.80;;;;;;5027808;28;20387;-72
2023/10/01 10:42:42;;;;;;;20.63;9.70;;;21.90;30.30;;;;;;5026261;28;20472;-73
2023/10/01 10:45:20;;;;;;;24.52;10.63;;;21.90;30.20;;;;;;5027818;28;20530;-72
2023/10/01 10:47:58;;;;;;;20.00;10.35;;;21.80;30.20;;;;;;5028050;28;20736;-73
2023/10/01 10:50:58;;;;;;;24.45;9.77;;;21.90;30.30;;;;;;5028429;28;20391;-72
2023/10/01 10:53:44;;;;;;;21.88;9.60;;;21.90;30.50;;;;;;5025301;28;20406;-72
2023/10/01 10:56:14;;;;;;;20.58;9.45;;;21.90;30.50;;;;;;5027547;28;20509;-72
2023/10/01 10:58:48;;;;;;;20.30;9.70;;;22.20;30.00;;;;;;5028101;28;20959;-73
2023/10/01 11:01:20;;;;;;;20.90;10.10;;;22.30;29.60;;;;;;5025018;28;20411;-72
2023/10/01 11:03:54;;;;;;;17.60;8.90;;;22.30;29.50;;;;;;5016950;28;20416;-73
2023/10/01 11:06:39;;;;;;;19.65;8.90;;;22.20;30.40;;;;;;5009668;28;20396;-75
2023/10/01 11:09:25;;;;;;;20.93;9.30;;;22.00;30.80;;;;;;5030471;28;20476;-74
2023/10/01 11:12:05;;;;;;;20.30;9.48;;;22.10;30.50;;;;;;5029032;28;20404;-73
2023/10/01 11:14:36;;;;;;;22.08;9.93;;;22.20;30.40;;;;;;5012040;28;20378;-73
2023/10/01 11:17:03;;;;;;;21.55;9.35;;;22.20;30.60;;;;;;5016784;28;20391;-74
2023/10/01 11:19:35;;;;;;;21.20;9.90;;;22.10;30.50;;;;;;5018181;28;20396;-73
2023/10/01 11:22:02;;;;;;;22.17;9.83;;;22.10;30.60;;;;;;5026036;28;20411;-73
2023/10/01 11:24:32;;;;;;;21.52;10.10;;;22.10;31.00;;;;;;5031456;28;20502;-72
2023/10/01 11:27:18;;;;;;;24.73;10.05;;;22.10;30.50;;;;;;5032980;28;20389;-73
2023/10/01 11:29:58;;;;;;;25.97;10.00;;;22.20;30.10;;;;;;5022447;28;20412;-72
2023/10/01 11:35:31;;;;;;;20.83;9.45;;;22.20;30.30;;;;;;5016357;28;20391;-71
2023/10/01 11:38:03;;;;;;;22.10;9.33;;;22.00;30.70;;;;;;5016712;28;20385;-71
2023/10/01 11:41:06;;;;;;;24.50;10.25;;;22.00;31.40;;;;;;5018723;28;20445;-73
2023/10/01 11:43:27;;;;;;;25.40;10.10;;;22.10;31.80;;;;;;5015677;28;20443;-72
2023/10/01 11:46:25;;;;;;;27.15;10.98;;;22.20;31.10;;;;;;5016177;28;20388;-73
2023/10/01 11:49:05;;;;;;;22.42;10.15;;;22.30;31.30;;;;;;5015522;28;20388;-72
2023/10/01 11:52:01;;;;;;;20.95;10.15;;;22.50;29.90;;;;;;5014710;28;20381;-72
2023/10/01 11:54:44;;;;;;;22.45;9.70;;;22.40;30.00;;;;;;5016739;28;20380;-72
2023/10/01 11:57:22;;;;;;;25.60;10.50;;;22.50;29.60;;;;;;5019710;28;20384;-72
2023/10/01 11:59:55;;;;;;;22.37;10.30;;;22.60;30.00;;;;;;5016872;28;20544;-72
2023/10/01 12:02:30;;;;;;;23.25;10.50;;;22.60;29.80;;;;;;5019602;28;20409;-72
2023/10/01 12:04:58;;;;;;;25.92;11.02;;;22.60;29.90;;;;;;5017793;28;20391;-73
2023/10/01 12:07:27;;;;;;;22.25;10.40;;;22.80;29.60;;;;;;5014594;28;20730;-72
2023/10/01 12:09:55;;;;;;;22.60;10.35;;;22.80;29.20;;;;;;5015116;28;20392;-71
2023/10/01 12:12:28;;;;;;;22.73;10.43;;;23.00;29.50;;;;;;5015322;28;20443;-72
2023/10/01 12:14:55;;;;;;;20.52;10.60;;;23.00;27.90;;;;;;5014631;28;20396;-72
2023/10/01 12:17:28;;;;;;;24.00;10.32;;;23.00;28.40;;;;;;5014194;28;20397;-72
2023/10/01 12:19:59;;;;;;;23.63;10.73;;;23.20;27.70;;;;;;5013600;28;20576;-72
2023/10/01 12:22:26;;;;;;;23.00;10.48;;;23.10;28.30;;;;;;5011798;28;20400;-72
2023/10/01 12:25:02;;;;;;;27.23;10.02;;;23.20;27.50;;;;;;5013144;28;20393;-72
2023/10/01 12:27:42;;;;;;;20.75;10.40;;;23.40;27.20;;;;;;5013553;28;20435;-72
2023/10/01 12:30:11;;;;;;;21.52;9.98;;;23.40;26.90;;;;;;5013951;28;20396;-72
2023/10/01 12:32:41;;;;;;;21.38;10.30;;;23.30;27.20;;;;;;5012442;28;20393;-72
2023/10/01 12:35:27;;;;;;;23.25;10.60;;;23.40;26.90;;;;;;5012954;28;20518;-71
2023/10/01 12:38:05;;;;;;;23.95;10.70;;;23.40;26.00;;;;;;5012787;28;20464;-71
2023/10/01 12:40:37;;;;;;;23.65;10.60;;;23.40;26.50;;;;;;5013156;28;20399;-71
2023/10/01 12:43:32;;;;;;;21.33;10.13;;;23.50;26.10;;;;;;5011478;28;20825;-72
2023/10/01 12:45:52;;;;;;;24.60;11.18;;;23.60;26.40;;;;;;5012596;28;20484;-72
2023/10/01 12:48:20;;;;;;;27.35;10.85;;;23.70;26.40;;;;;;5012684;28;20460;-71
2023/10/01 12:51:07;;;;;;;26.73;10.35;;;23.70;25.90;;;;;;5011970;28;20476;-72
2023/10/01 12:53:48;;;;;;;23.35;11.10;;;23.70;26.30;;;;;;5012277;28;20472;-71
2023/10/01 12:56:15;;;;;;;25.70;11.93;;;23.70;25.80;;;;;;5012857;28;20384;-71
2023/10/01 12:58:53;;;;;;;26.30;11.38;;;23.90;24.80;;;;;;5012585;28;20388;-71
2023/10/01 13:01:31;;;;;;;28.52;11.70;;;24.00;24.50;;;;;;5011637;28;20392;-70
2023/10/01 13:04:21;;;;;;;23.30;10.48;;;24.20;24.30;;;;;;5012761;28;20443;-72
2023/10/01 13:06:46;;;;;;;22.70;11.27;;;24.30;24.20;;;;;;5012432;28;20396;-72
2023/10/01 13:09:53;;;;;;;25.95;11.57;;;24.60;23.60;;;;;;5013147;28;20427;-72
2023/10/01 13:12:14;;;;;;;24.20;11.63;;;24.90;23.10;;;;;;5013063;28;20884;-72
2023/10/01 13:15:14;;;;;;;23.75;11.55;;;25.00;21.20;;;;;;5012607;28;20384;-72
2023/10/01 13:17:38;;;;;;;25.58;11.63;;;25.10;21.30;;;;;;5012299;28;20393;-72
2023/10/01 13:20:19;;;;;;;25.27;11.52;;;25.10;19.90;;;;;;5012915;28;20388;-72
2023/10/01 13:22:49;;;;;;;26.20;11.50;;;25.00;19.90;;;;;;5012038;28;20416;-71
2023/10/01 13:25:19;;;;;;;24.60;11.30;;;25.10;19.70;;;;;;5011780;28;20405;-71
2023/10/01 13:27:50;;;;;;;24.77;12.20;;;25.10;18.80;;;;;;5012432;28;20867;-72
2023/10/01 13:30:20;;;;;;;24.10;12.68;;;24.90;18.70;;;;;;5013462;28;20384;-72
2023/10/01 13:35:36;;;;;;;30.17;15.43;;;25.10;18.80;;;;;;5012242;28;20892;-72
2023/10/01 14:11:07;;;;;;;35.03;17.15;;;27.20;10.10;;;;;;5011448;28;20388;-71
2023/10/01 14:13:36;;;;;;;35.05;18.13;;;27.80;10.10;;;;;;5010841;28;20385;-73
2023/10/01 14:16:12;;;;;;;35.05;16.77;;;28.30;9.60;;;;;;5010933;28;20385;-71
2023/10/01 14:18:46;;;;;;;28.80;15.48;;;28.70;9.30;;;;;;5010996;28;20411;-71